ADDS METAR Data INFO
IDs: Format: Raw Decoded Include TAF

Data at: 2014 UTC 18 Jul 2018

KGHG 181955Z AUTO 05006KT 10SM CLR 26/16 A2985 RMK AO2
KGHG 181935Z AUTO 05007KT 10SM CLR 26/16 A2985 RMK AO2
KGHG 181915Z AUTO VRB05G10KT 10SM CLR 25/16 A2985 RMK AO2
KGHG 181855Z AUTO VRB05G12KT 10SM CLR 26/14 A2985 RMK AO2
KGHG 181835Z AUTO 01007KT 330V060 10SM CLR 26/16 A2985 RMK AO2
KGHG 181815Z AUTO VRB05G10KT 10SM CLR 26/14 A2985 RMK AO2
KGHG 181755Z AUTO VRB05KT 10SM CLR 26/14 A2985 RMK AO2
KGHG 181735Z AUTO VRB06KT 10SM CLR 26/14 A2985 RMK AO2
KGHG 181715Z AUTO 01008G14KT 330V060 10SM CLR 26/14 A2985 RMK AO2
KGHG 181655Z AUTO VRB06G14KT 10SM CLR 26/15 A2985 RMK AO2
KGHG 181635Z AUTO 01007G14KT 330V080 10SM CLR 26/15 A2985 RMK AO2
KGHG 181615Z AUTO VRB06G13KT 10SM CLR 26/16 A2984 RMK AO2
KGHG 181555Z AUTO VRB07G12KT 330V070 10SM CLR 26/16 A2985 RMK AO2
KGHG 181535Z AUTO 36007KT 320V040 10SM CLR 25/16 A2985 RMK AO2
KGHG 181515Z AUTO VRB06KT 10SM CLR 25/17 A2985 RMK AO2
KGHG 181455Z AUTO 01007G13KT 310V090 10SM FEW090 25/18 A2985 RMK AO2
KGHG 181435Z AUTO 01008G13KT 340V050 10SM CLR 25/18 A2985 RMK AO2
KGHG 181415Z AUTO VRB05G12KT 10SM FEW085 24/18 A2985 RMK AO2
KGHG 181355Z AUTO VRB07G13KT 10SM CLR 24/19 A2985 RMK AO2 P0001
KGHG 181335Z AUTO VRB06G13KT 300V040 10SM CLR 23/19 A2984 RMK AO2
KGHG 181315Z AUTO VRB06G13KT 10SM FEW011 FEW022 FEW080 24/20 A2984 RMK AO2
KGHG 181255Z AUTO 34007G13KT 300V010 10SM SCT010 BKN022 BKN080 23/21 A2985 RMK AO2
KGHG 181235Z AUTO VRB05KT 10SM BKN010 OVC014 22/21 A2984 RMK AO2
KGHG 181215Z AUTO VRB05G10KT 10SM SCT007 BKN012 OVC018 23/22 A2983 RMK AO2
KGHG 181155Z AUTO VRB06KT 10SM SCT007 BKN010 OVC019 23/22 A2983 RMK AO2
KGHG 181135Z AUTO 00000KT 10SM BKN009 OVC012 22/22 A2982 RMK AO2
KGHG 181115Z AUTO VRB06KT 10SM OVC012 22/22 A2982 RMK AO2
KGHG 181055Z AUTO VRB04KT 10SM OVC012 22/22 A2982 RMK AO2
KGHG 181035Z AUTO 00000KT 10SM BKN010 BKN013 22/22 A2981 RMK AO2
KGHG 181015Z AUTO 00000KT 10SM BKN012 22/22 A2980 RMK AO2
KGHG 180955Z AUTO 00000KT 10SM BKN013 21/21 A2980 RMK AO2
KGHG 180935Z AUTO 00000KT 10SM CLR 21/21 A2979 RMK AO2
KGHG 180915Z AUTO 00000KT 10SM SCT016 SCT025 SCT070 22/22 A2978 RMK AO2
KGHG 180855Z AUTO VRB04KT 10SM SCT003 BKN016 OVC024 21/21 A2979 RMK AO2
KGHG 180835Z AUTO 26003KT 10SM BKN002 OVC008 21/21 A2979 RMK AO2
KGHG 180815Z AUTO 00000KT 10SM SCT002 BKN010 BKN120 21/21 A2977 RMK AO2
KGHG 180755Z AUTO 00000KT 10SM FEW008 FEW012 SCT060 21/21 A2974 RMK AO2
KGHG 180735Z AUTO 00000KT 10SM FEW009 SCT017 BKN065 21/21 A2977 RMK AO2
KGHG 180715Z AUTO 00000KT 10SM SCT016 SCT046 OVC065 21/21 A2976 RMK AO2
KGHG 180655Z AUTO 00000KT 10SM BKN070 BKN095 21/21 A2977 RMK AO2
KGHG 180635Z AUTO 00000KT 10SM CLR 21/21 A2976 RMK AO2
KGHG 180615Z AUTO 00000KT 10SM FEW100 21/21 A2976 RMK AO2
KGHG 180555Z AUTO 00000KT 10SM FEW100 21/21 A2976 RMK AO2
KGHG 180535Z AUTO 22003KT 10SM CLR 21/21 A2976 RMK AO2
KGHG 180515Z AUTO 00000KT 10SM -DZ FEW002 FEW120 21/21 A2977 RMK AO2
KGHG 180455Z AUTO 22004KT 10SM FEW120 21/21 A2978 RMK AO2
KGHG 180435Z AUTO VRB04KT 10SM CLR 21/21 A2977 RMK AO2
KGHG 180415Z AUTO 21004KT 10SM FEW004 21/21 A2977 RMK AO2
KGHG 180355Z AUTO 22003KT 10SM CLR 21/21 A2978 RMK AO2
KGHG 180335Z AUTO 20004KT 10SM CLR 21/21 A2978 RMK AO2 LTG DSNT S
KGHG 180315Z AUTO 00000KT 10SM SCT006 SCT009 21/21 A2978 RMK AO2
KGHG 180255Z AUTO VRB04KT 10SM BKN006 BKN009 21/21 A2978 RMK AO2
KGHG 180235Z AUTO VRB04KT 10SM CLR 21/21 A2978 RMK AO2
KGHG 180215Z AUTO 22005KT 10SM -DZ CLR 21/21 A2977 RMK AO2
KGHG 180155Z AUTO 21004KT 10SM CLR 22/22 A2977 RMK AO2 P0001
KGHG 180135Z AUTO 00000KT 10SM CLR 22/22 A2979 RMK AO2
KGHG 180115Z AUTO VRB04KT 10SM CLR 22/22 A2978 RMK AO2
KGHG 180055Z AUTO 00000KT 10SM CLR 22/22 A2979 RMK AO2
KGHG 180035Z AUTO 25004KT 10SM CLR 22/22 A2979 RMK AO2
KGHG 180015Z AUTO 00000KT 10SM CLR 22/22 A2980 RMK AO2
KGHG 172355Z AUTO 21006KT 10SM FEW110 22/22 A2980 RMK AO2 P0038
KGHG 172335Z AUTO 17005KT 10SM FEW001 SCT009 BKN110 21/21 A2978 RMK AO2 LTG DSNT ALQDS
KGHG 172315Z AUTO VRB03KT 1/2SM +TSRA OVC001 21/21 A2979 RMK AO2 LTG DSNT ALQDS
KGHG 172255Z AUTO VRB04KT 1SM RA BKN002 OVC011 21/21 A2981 RMK AO2 LTG DSNT N AND NW P0044
KGHG 172235Z AUTO 27008G18KT 230V300 2 1/2SM -RA FEW001 SCT017 BKN041 23/22 A2982 RMK AO2 LTG DSNT SW-N
KGHG 172215Z AUTO 18005KT 10SM VCTS FEW042 SCT048 SCT060 24/21 A2977 RMK AO2 LTG DSNT N AND NW
KGHG 172155Z AUTO VRB04KT 10SM VCTS FEW023 SCT043 SCT049 24/20 A2978 RMK AO2 LTG DSNT W-N
KGHG 172135Z AUTO VRB04KT 10SM SCT024 SCT029 BKN043 24/19 A2979 RMK AO2 LTG DSNT N AND NW
KGHG 172115Z AUTO 08004KT 10SM BKN025 BKN030 OVC043 23/20 A2981 RMK AO2 LTG DSNT N AND NW
KGHG 172055Z AUTO VRB06KT 10SM BKN024 OVC029 23/20 A2982 RMK AO2 LTG DSNT W-N
KGHG 172035Z AUTO VRB03KT 10SM BKN022 BKN026 OVC031 24/20 A2982 RMK AO2
KGHG 172015Z AUTO 05005KT 10SM BKN024 OVC031 23/19 A2982 RMK AO2
KGHG 171955Z AUTO VRB06G11KT 10SM BKN023 OVC028 23/19 A2982 RMK AO2
KGHG 171935Z AUTO VRB05KT 10SM BKN023 BKN029 25/19 A2982 RMK AO2
KGHG 171915Z AUTO 22008G14KT 190V260 10SM CLR 29/23 A2981 RMK AO2
KGHG 171855Z AUTO 22008G18KT 10SM CLR 29/23 A2981 RMK AO2
KGHG 171835Z AUTO 22012G20KT 10SM CLR 30/23 A2980 RMK AO2
KGHG 171815Z AUTO 21014G24KT 10SM CLR 30/24 A2980 RMK AO2 LTG DSNT N AND S
KGHG 171755Z AUTO 21012G23KT 190V250 10SM FEW026 FEW035 FEW043 30/24 A2980 RMK AO2 LTG DSNT N AND NW
KGHG 171735Z AUTO 22010G24KT 200V260 10SM CLR 31/24 A2980 RMK AO2 LTG DSNT S AND NW
KGHG 171715Z AUTO 21016G27KT 180V240 10SM CLR 31/24 A2980 RMK AO2 LTG DSNT NW
KGHG 171655Z AUTO 22015G23KT 10SM FEW025 FEW060 FEW110 31/24 A2981 RMK AO2 LTG DSNT NW
KGHG 171635Z AUTO 21016G22KT 10SM FEW024 FEW110 31/24 A2981 RMK AO2 LTG DSNT N AND NW
KGHG 171615Z AUTO 22011G22KT 10SM FEW022 FEW095 30/24 A2981 RMK AO2 LTG DSNT NW
KGHG 171555Z AUTO 21013G21KT 10SM FEW023 FEW055 FEW120 31/24 A2982 RMK AO2 LTG DSNT N
KGHG 171535Z AUTO 21009G17KT 190V250 10SM CLR 31/24 A2983 RMK AO2 LTG DSNT NW
KGHG 171515Z AUTO 20012G18KT 10SM FEW023 FEW100 30/24 A2983 RMK AO2
KGHG 171455Z AUTO 21011G19KT 10SM CLR 30/24 A2984 RMK AO2
KGHG 171435Z AUTO 22011G16KT 10SM CLR 30/24 A2984 RMK AO2
KGHG 171415Z AUTO 22008G16KT 180V240 10SM CLR 29/24 A2985 RMK AO2
KGHG 171355Z AUTO 20012KT 10SM CLR 28/24 A2985 RMK AO2
KGHG 171335Z AUTO 21011G17KT 10SM CLR 28/24 A2985 RMK AO2
KGHG 171315Z AUTO 22009G16KT 10SM CLR 28/23 A2985 RMK AO2
KGHG 171255Z AUTO 21009KT 10SM CLR 28/23 A2986 RMK AO2
KGHG 171235Z AUTO 21007G14KT 10SM CLR 27/23 A2986 RMK AO2
KGHG 171215Z AUTO 20009G14KT 10SM CLR 26/23 A2986 RMK AO2
KGHG 171155Z AUTO 22010G17KT 10SM CLR 26/23 A2986 RMK AO2
KGHG 171135Z AUTO 21008KT 10SM CLR 25/23 A2987 RMK AO2
KGHG 171115Z AUTO 22007G13KT 160V240 10SM CLR 25/23 A2987 RMK AO2
KGHG 171055Z AUTO 22008KT 10SM CLR 24/22 A2988 RMK AO2
KGHG 171035Z AUTO 22007G13KT 10SM CLR 24/22 A2988 RMK AO2
KGHG 171015Z AUTO 22008G14KT 10SM CLR 23/22 A2988 RMK AO2
KGHG 170955Z AUTO 22005KT 10SM CLR 23/22 A2988 RMK AO2
KGHG 170935Z AUTO 21007KT 10SM CLR 23/22 A2988 RMK AO2
KGHG 170915Z AUTO 21007G13KT 10SM CLR 23/22 A2987 RMK AO2
KGHG 170855Z AUTO 21006KT 10SM CLR 23/22 A2988 RMK AO2
KGHG 170835Z AUTO 22007KT 10SM CLR 23/23 A2988 RMK AO2
KGHG 170815Z AUTO VRB04G11KT 10SM CLR 23/23 A2988 RMK AO2 LTG DSNT SE